KEMP

Emporia Municipal Airport

Emporia, Kansas, USA
METAR KEMP 170753Z AUTO 18007KT 10SM -RA FEW012 SCT060 OVC080 06/04 A2995 RMK AO2 SLP145 P0004 T00560044
Observed Flight Rules
Dec-17 @ 07:53 UTC (23 minutes ago) Visual Flight Rules
Wind Visibility Clouds Conditions
180° at 7 knots 10 miles
  • Few at 1,200' AGL
  • Scattered at 6,000' AGL
  • Overcast at 8,000' AGL
  • Light Rain
Temperatures Readings Precipitation
Current 6°C / 43°F
Dewpoint 4°C / 39°F
Humidity 87%
Altimeter 29.95" Hg
Pressure 1014.5 hPa
Elevation 367
Current Rain 0.04
METAR KEMP 170753Z AUTO 18007KT 10SM -RA FEW012 SCT060 OVC080 06/04 A2995 RMK AO2 SLP145 P0004 T00560044
Observed Flight Rules
Dec-17 @ 07:53 UTC
(23 minutes ago)
VFR
Wind Visibility
180° at 7 knots 10 miles
Clouds
  • Few at 1,200' AGL
  • Scattered at 6,000' AGL
  • Overcast at 8,000' AGL
Conditions
  • Light Rain
Temperature Dewpoint
6°C / 43°F 4°C / 39°F
Humidity Altimeter Pressure
87% 29.95" Hg 1014.5 hPa
Current Rain
0.04